Time;durP1;ratioP1;P1;durP2;ratioP2;P2;SDS_P1;SDS_P2;PMS_P1;PMS_P2;Temp;Humidity;BMP_temperature;BMP_pressure;BME280_temperature;BME280_humidity;BME280_pressure;Samples;Min_cycle;Max_cycle;Signal;HPM_P1;HPM_P2
2022/03/10 00:00:07;;;;;;;28.75;11.48;;;7.70;92.50;;;;;;5014487;28;20030;-39
2022/03/10 00:02:32;;;;;;;34.13;12.07;;;7.70;92.40;;;;;;5026713;28;20155;-39
2022/03/10 00:04:58;;;;;;;27.65;11.07;;;7.70;92.50;;;;;;5033745;28;20489;-38
2022/03/10 00:07:24;;;;;;;33.33;12.52;;;7.60;92.60;;;;;;5033947;28;20032;-39
2022/03/10 00:09:49;;;;;;;26.92;10.50;;;7.60;92.70;;;;;;5033937;28;20033;-37
2022/03/10 00:12:15;;;;;;;27.52;11.88;;;7.60;92.60;;;;;;5033876;28;20033;-38
2022/03/10 00:14:41;;;;;;;28.00;11.93;;;7.50;92.90;;;;;;5033771;28;20040;-39
2022/03/10 00:17:06;;;;;;;26.48;11.73;;;7.50;93.00;;;;;;5033577;28;20037;-37
2022/03/10 00:19:32;;;;;;;25.90;11.52;;;7.40;93.20;;;;;;5033557;28;20026;-41
2022/03/10 00:21:58;;;;;;;25.40;11.02;;;7.40;93.20;;;;;;5033732;28;20057;-39
2022/03/10 00:24:24;;;;;;;32.10;12.00;;;7.30;93.40;;;;;;5033911;28;20033;-37
2022/03/10 00:26:50;;;;;;;26.25;12.40;;;7.30;93.50;;;;;;5032549;28;20473;-41
2022/03/10 00:29:15;;;;;;;31.30;11.02;;;7.20;93.50;;;;;;5033471;28;20021;-40
2022/03/10 00:31:41;;;;;;;28.45;10.45;;;7.30;93.40;;;;;;5033488;28;20486;-40
2022/03/10 00:34:08;;;;;;;28.83;11.45;;;7.30;93.50;;;;;;5033456;28;20021;-40
2022/03/10 00:36:33;;;;;;;31.83;11.68;;;7.30;93.60;;;;;;5033231;28;20462;-42
2022/03/10 00:38:59;;;;;;;25.67;10.82;;;7.30;93.70;;;;;;5022216;28;20040;-40
2022/03/10 00:41:24;;;;;;;27.30;12.00;;;7.30;93.60;;;;;;5029590;28;20040;-40
2022/03/10 00:43:50;;;;;;;29.83;12.23;;;7.30;93.70;;;;;;5033674;28;20033;-40
2022/03/10 00:46:16;;;;;;;23.17;10.45;;;7.30;93.50;;;;;;5033266;28;20037;-40
2022/03/10 00:48:41;;;;;;;30.20;10.70;;;7.30;93.50;;;;;;5033328;28;20448;-42
2022/03/10 00:51:07;;;;;;;28.67;12.85;;;7.30;93.70;;;;;;5032908;28;20034;-37
2022/03/10 00:53:34;;;;;;;33.17;11.43;;;7.30;93.70;;;;;;5033193;28;20029;-40
2022/03/10 00:55:59;;;;;;;24.58;11.18;;;7.20;93.80;;;;;;5033192;28;20036;-41
2022/03/10 00:58:25;;;;;;;29.17;11.48;;;7.20;93.80;;;;;;5015932;28;20025;-38
2022/03/10 01:00:54;;;;;;;28.27;11.13;;;7.20;93.90;;;;;;5014676;28;20071;-40
2022/03/10 01:03:20;;;;;;;26.50;11.55;;;7.20;93.90;;;;;;5023547;28;20553;-39
2022/03/10 01:05:46;;;;;;;24.02;10.50;;;7.20;93.80;;;;;;5031987;28;20466;-39
2022/03/10 01:08:12;;;;;;;28.05;11.30;;;7.20;94.10;;;;;;5015242;28;20049;-37
2022/03/10 01:10:38;;;;;;;26.85;10.98;;;7.20;93.90;;;;;;5013312;28;20034;-39
2022/03/10 01:13:12;;;;;;;22.30;10.43;;;7.00;94.20;;;;;;5012996;28;20529;-38
2022/03/10 01:15:38;;;;;;;26.17;12.40;;;6.90;94.50;;;;;;5012416;28;20022;-41
2022/03/10 01:18:04;;;;;;;35.47;12.43;;;6.90;94.50;;;;;;5013211;28;20029;-39
2022/03/10 01:20:29;;;;;;;31.33;12.38;;;6.90;94.40;;;;;;5013062;28;20038;-40
2022/03/10 01:22:55;;;;;;;23.85;11.63;;;6.90;94.40;;;;;;5013174;28;20194;-39
2022/03/10 01:25:21;;;;;;;26.08;11.23;;;6.80;94.60;;;;;;5011729;28;20030;-39
2022/03/10 01:27:47;;;;;;;26.05;11.65;;;6.80;94.50;;;;;;5025468;28;20037;-42
2022/03/10 01:30:14;;;;;;;24.08;11.73;;;6.90;94.50;;;;;;5013007;28;20093;-40
2022/03/10 01:32:40;;;;;;;23.77;10.93;;;6.90;94.50;;;;;;5012983;28;20373;-39
2022/03/10 01:35:06;;;;;;;33.72;11.43;;;6.70;94.80;;;;;;5013197;28;20045;-37
2022/03/10 01:37:36;;;;;;;26.50;10.93;;;6.70;94.90;;;;;;5024022;28;20024;-39
2022/03/10 01:40:10;;;;;;;30.45;11.95;;;6.60;95.20;;;;;;5031366;28;20064;-37
2022/03/10 01:42:36;;;;;;;28.15;11.52;;;6.50;95.20;;;;;;5032744;28;20018;-38
2022/03/10 01:45:02;;;;;;;26.45;11.07;;;6.50;95.40;;;;;;5032565;28;20048;-42
2022/03/10 01:47:28;;;;;;;22.88;11.35;;;6.40;95.40;;;;;;5020666;28;20113;-39
2022/03/10 01:49:53;;;;;;;28.15;10.68;;;6.40;95.60;;;;;;5012693;28;20489;-40
2022/03/10 01:52:20;;;;;;;27.40;11.38;;;6.30;95.50;;;;;;5012945;28;20034;-37
2022/03/10 01:54:46;;;;;;;26.15;11.30;;;6.30;95.80;;;;;;5013111;28;20022;-45
2022/03/10 01:57:11;;;;;;;28.95;11.27;;;6.30;95.90;;;;;;5020240;28;20605;-39
2022/03/10 01:59:39;;;;;;;26.40;10.98;;;6.20;96.00;;;;;;5025795;28;20022;-39
2022/03/10 02:02:06;;;;;;;32.33;10.75;;;6.20;96.20;;;;;;5012649;28;20022;-38
2022/03/10 02:04:32;;;;;;;26.02;11.32;;;6.10;96.00;;;;;;5012924;28;20050;-37
2022/03/10 02:06:59;;;;;;;32.78;12.13;;;6.10;96.20;;;;;;5018016;28;20022;-38
2022/03/10 02:12:09;;;;;;;27.92;11.93;;;6.10;96.30;;;;;;5012667;28;20092;-39
2022/03/10 02:17:21;;;;;;;28.90;11.60;;;6.10;96.60;;;;;;5012537;28;20076;-39
2022/03/10 02:19:49;;;;;;;26.30;10.80;;;6.00;96.50;;;;;;5012818;28;20030;-39
2022/03/10 02:22:15;;;;;;;25.70;11.43;;;6.00;96.50;;;;;;5012498;28;20152;-40
2022/03/10 02:24:42;;;;;;;29.33;11.90;;;6.00;96.70;;;;;;5012904;28;20117;-39
2022/03/10 02:27:16;;;;;;;26.87;11.97;;;5.90;96.60;;;;;;5034136;28;20022;-38
2022/03/10 02:29:45;;;;;;;36.00;12.60;;;5.90;96.70;;;;;;5035665;28;20595;-39
2022/03/10 02:32:12;;;;;;;24.70;10.77;;;5.80;96.90;;;;;;5035703;28;20025;-48
2022/03/10 02:34:39;;;;;;;33.92;11.90;;;5.90;97.00;;;;;;5035641;28;20032;-39
2022/03/10 02:37:05;;;;;;;25.90;11.35;;;5.80;97.10;;;;;;5033822;28;20017;-40
2022/03/10 02:39:31;;;;;;;30.38;12.18;;;5.80;97.20;;;;;;5036050;28;20543;-41
2022/03/10 02:41:57;;;;;;;25.77;10.60;;;5.70;97.20;;;;;;5035598;28;20101;-39
2022/03/10 02:44:22;;;;;;;26.30;11.57;;;5.70;97.40;;;;;;5035862;28;20160;-38
2022/03/10 02:46:48;;;;;;;29.25;12.27;;;5.70;97.50;;;;;;5029976;28;20033;-37
2022/03/10 02:49:14;;;;;;;35.92;11.68;;;5.60;97.60;;;;;;5015760;28;20037;-38
2022/03/10 02:51:39;;;;;;;29.98;11.73;;;5.60;97.60;;;;;;5015659;28;20030;-40
2022/03/10 02:54:05;;;;;;;29.30;10.32;;;5.70;97.60;;;;;;5016043;28;20072;-40
2022/03/10 02:56:31;;;;;;;29.58;11.50;;;5.60;97.70;;;;;;5033815;28;20029;-40
2022/03/10 02:58:56;;;;;;;24.15;10.13;;;5.60;97.90;;;;;;5035437;28;20414;-39
2022/03/10 03:01:22;;;;;;;27.58;10.82;;;5.60;97.70;;;;;;5035358;28;20022;-39
2022/03/10 03:03:48;;;;;;;29.10;11.55;;;5.50;98.20;;;;;;5033870;28;20497;-40
2022/03/10 03:06:14;;;;;;;28.23;10.90;;;5.50;98.10;;;;;;5034902;28;20032;-39
2022/03/10 03:08:39;;;;;;;31.48;10.77;;;5.50;98.00;;;;;;5025005;28;20478;-45
2022/03/10 03:11:05;;;;;;;24.60;11.07;;;5.60;98.10;;;;;;5015319;28;20030;-39
2022/03/10 03:13:30;;;;;;;29.00;11.70;;;5.60;98.00;;;;;;5015163;28;20038;-39
2022/03/10 03:15:56;;;;;;;33.25;13.38;;;5.50;98.20;;;;;;5018468;28;20502;-40
2022/03/10 03:18:21;;;;;;;31.05;12.02;;;5.50;98.20;;;;;;5013968;28;20108;-40
2022/03/10 03:20:47;;;;;;;28.48;11.23;;;5.50;98.20;;;;;;5015350;28;20036;-40
2022/03/10 03:23:13;;;;;;;33.40;11.63;;;5.50;98.30;;;;;;5015081;28;20026;-40
2022/03/10 03:25:38;;;;;;;27.75;12.13;;;5.40;98.40;;;;;;5030253;28;20029;-39
2022/03/10 03:28:04;;;;;;;27.00;11.02;;;5.40;98.60;;;;;;5034820;28;20048;-41
2022/03/10 03:30:30;;;;;;;37.03;11.85;;;5.40;98.80;;;;;;5034456;28;20029;-40
2022/03/10 03:32:56;;;;;;;31.35;11.90;;;5.40;98.60;;;;;;5034687;28;20127;-42
2022/03/10 03:35:21;;;;;;;24.15;11.80;;;5.40;98.60;;;;;;5019912;28;20036;-39
2022/03/10 03:37:47;;;;;;;29.30;11.02;;;5.40;98.40;;;;;;5031833;28;20029;-42
2022/03/10 03:40:13;;;;;;;29.83;10.68;;;5.40;98.70;;;;;;5034317;28;20017;-41
2022/03/10 03:42:39;;;;;;;33.22;11.13;;;5.30;98.60;;;;;;5034570;28;20032;-40
2022/03/10 03:45:05;;;;;;;26.65;9.93;;;5.30;98.80;;;;;;5034444;28;20025;-40
2022/03/10 03:47:31;;;;;;;28.52;10.90;;;5.30;98.70;;;;;;5015819;28;20026;-40
2022/03/10 03:49:56;;;;;;;25.50;11.07;;;5.30;98.80;;;;;;5014689;28;20029;-41
2022/03/10 03:52:22;;;;;;;28.92;10.77;;;5.30;98.80;;;;;;5013408;28;20041;-40
2022/03/10 03:54:48;;;;;;;30.60;10.45;;;5.30;98.80;;;;;;5020349;28;20019;-39
2022/03/10 03:57:14;;;;;;;23.25;11.45;;;5.30;98.60;;;;;;5026540;28;20022;-39
2022/03/10 03:59:39;;;;;;;24.70;11.00;;;5.30;98.80;;;;;;5014444;28;20101;-42
2022/03/10 04:02:05;;;;;;;26.02;10.77;;;5.10;99.20;;;;;;5014580;28;20018;-42
2022/03/10 04:04:31;;;;;;;25.38;10.63;;;5.10;99.20;;;;;;5014629;28;20483;-41
2022/03/10 04:06:57;;;;;;;25.88;10.82;;;5.10;99.20;;;;;;5014194;28;20037;-40
2022/03/10 04:09:22;;;;;;;33.13;10.32;;;5.10;99.20;;;;;;5014213;28;20454;-40
2022/03/10 04:11:49;;;;;;;25.90;11.88;;;5.00;99.20;;;;;;5014439;28;20058;-39
2022/03/10 04:14:14;;;;;;;23.80;10.95;;;5.10;99.20;;;;;;5014018;28;20155;-42
2022/03/10 04:16:40;;;;;;;24.65;10.10;;;5.00;99.20;;;;;;5014215;28;20053;-40
2022/03/10 04:19:06;;;;;;;30.27;10.35;;;5.00;99.40;;;;;;5014153;28;20490;-39
2022/03/10 04:21:32;;;;;;;25.15;11.02;;;5.00;99.40;;;;;;5021264;28;20025;-39
2022/03/10 04:23:58;;;;;;;26.88;10.23;;;5.10;99.30;;;;;;5014500;28;20034;-39
2022/03/10 04:26:25;;;;;;;29.55;11.15;;;5.10;99.30;;;;;;5013954;28;20106;-39
2022/03/10 04:28:50;;;;;;;28.90;11.68;;;5.00;99.30;;;;;;5013905;28;20025;-40
2022/03/10 04:31:16;;;;;;;25.92;11.52;;;5.00;99.60;;;;;;5019093;28;20032;-39
2022/03/10 04:33:42;;;;;;;19.60;9.88;;;5.00;99.70;;;;;;5024628;28;20383;-40
2022/03/10 04:36:07;;;;;;;26.65;10.30;;;5.00;99.50;;;;;;5018569;28;20021;-40
2022/03/10 04:38:33;;;;;;;28.70;10.38;;;5.00;99.50;;;;;;5033524;28;20056;-42
2022/03/10 04:40:58;;;;;;;27.20;11.32;;;4.90;99.70;;;;;;5029819;28;20437;-49
2022/03/10 04:43:24;;;;;;;26.73;10.32;;;4.90;99.80;;;;;;5013682;28;20104;-39
2022/03/10 04:45:50;;;;;;;20.63;9.50;;;4.90;99.60;;;;;;5017737;28;20048;-39
2022/03/10 04:48:15;;;;;;;32.00;10.45;;;5.00;99.80;;;;;;5013569;28;20487;-39
2022/03/10 04:50:41;;;;;;;29.17;10.95;;;4.90;99.90;;;;;;5014397;28;20026;-39
2022/03/10 04:53:07;;;;;;;22.00;9.35;;;4.90;99.90;;;;;;5033254;28;20097;-38
2022/03/10 04:55:33;;;;;;;20.88;9.15;;;4.90;99.90;;;;;;5033242;28;20021;-39
2022/03/10 04:57:59;;;;;;;25.58;10.48;;;4.90;99.80;;;;;;5028145;28;20103;-42
2022/03/10 05:00:24;;;;;;;34.72;11.60;;;4.90;99.90;;;;;;5033155;28;20022;-40
2022/03/10 05:02:50;;;;;;;31.02;11.85;;;4.90;99.90;;;;;;5032084;28;20025;-40
2022/03/10 05:05:18;;;;;;;24.75;10.40;;;4.90;99.90;;;;;;5033278;28;20049;-39
2022/03/10 05:07:45;;;;;;;26.95;10.95;;;4.80;99.90;;;;;;5017246;28;20430;-38
2022/03/10 05:10:12;;;;;;;25.30;10.32;;;4.80;99.90;;;;;;5013174;28;20018;-40
2022/03/10 05:12:52;;;;;;;28.75;10.68;;;4.80;99.90;;;;;;5013598;28;20025;-40
2022/03/10 05:15:23;;;;;;;26.13;9.75;;;4.80;99.90;;;;;;5024529;28;20041;-39
2022/03/10 05:17:49;;;;;;;25.52;10.45;;;4.80;99.90;;;;;;5033139;28;20022;-40
2022/03/10 05:20:16;;;;;;;27.25;10.80;;;4.80;99.90;;;;;;5030670;28;20537;-38
2022/03/10 05:23:02;;;;;;;25.00;9.88;;;4.60;99.90;;;;;;5013031;28;20100;-41
2022/03/10 05:25:38;;;;;;;30.60;10.90;;;4.70;99.90;;;;;;5013072;28;20073;-42
2022/03/10 05:28:07;;;;;;;34.78;10.32;;;4.70;99.90;;;;;;5028646;28;20025;-40
2022/03/10 05:30:33;;;;;;;24.85;9.32;;;4.70;99.90;;;;;;5031750;28;20047;-40
2022/03/10 05:32:58;;;;;;;24.70;9.93;;;4.60;99.90;;;;;;5015658;28;20490;-40
2022/03/10 05:35:27;;;;;;;26.83;9.75;;;4.60;99.90;;;;;;5027163;28;20034;-40
2022/03/10 05:37:53;;;;;;;26.33;10.77;;;4.60;99.90;;;;;;5032654;28;20518;-39
2022/03/10 05:40:20;;;;;;;25.15;9.95;;;4.60;99.90;;;;;;5032005;28;20112;-43
2022/03/10 05:42:48;;;;;;;27.48;10.77;;;4.70;99.90;;;;;;5032666;28;20038;-47
2022/03/10 05:45:19;;;;;;;25.83;10.07;;;4.70;99.90;;;;;;5031856;28;20475;-40
2022/03/10 05:47:45;;;;;;;28.42;10.70;;;4.70;99.90;;;;;;5011705;28;20520;-39
2022/03/10 05:50:11;;;;;;;32.53;11.00;;;4.60;99.90;;;;;;5014358;28;20018;-39
2022/03/10 05:52:36;;;;;;;25.35;9.80;;;4.50;99.90;;;;;;5032847;28;20024;-41
2022/03/10 05:55:03;;;;;;;24.83;11.00;;;4.50;99.90;;;;;;5031241;28;20062;-40
2022/03/10 05:57:29;;;;;;;23.65;10.02;;;4.50;99.90;;;;;;5022171;28;20036;-39
2022/03/10 05:59:54;;;;;;;24.00;10.27;;;4.50;99.90;;;;;;5032478;28;20017;-40
2022/03/10 06:02:20;;;;;;;28.30;10.15;;;4.50;99.90;;;;;;5034609;28;20028;-38
2022/03/10 06:04:45;;;;;;;26.63;10.13;;;4.50;99.90;;;;;;5035944;28;20053;-40
2022/03/10 06:07:11;;;;;;;22.83;10.38;;;4.50;99.90;;;;;;5034651;28;20040;-39
2022/03/10 06:09:38;;;;;;;29.45;10.40;;;4.50;99.90;;;;;;5036079;28;20390;-39
2022/03/10 06:12:04;;;;;;;19.17;9.63;;;4.50;99.90;;;;;;5036445;28;20462;-42
2022/03/10 06:14:29;;;;;;;31.45;10.10;;;4.50;99.90;;;;;;5024613;28;20455;-40
2022/03/10 06:16:55;;;;;;;23.88;9.82;;;4.50;99.90;;;;;;5016374;28;20021;-40
2022/03/10 06:19:21;;;;;;;27.98;10.07;;;4.50;99.90;;;;;;5016317;28;20045;-41
2022/03/10 06:21:47;;;;;;;27.52;11.07;;;4.60;99.90;;;;;;5016401;28;20065;-40
2022/03/10 06:24:13;;;;;;;20.35;9.15;;;4.60;99.90;;;;;;5016865;28;20101;-40
2022/03/10 06:26:39;;;;;;;25.00;10.48;;;4.60;99.90;;;;;;5033085;28;20108;-37
2022/03/10 06:29:05;;;;;;;29.20;10.38;;;4.60;99.90;;;;;;5035946;28;20099;-40
2022/03/10 06:31:31;;;;;;;24.67;10.57;;;4.60;99.90;;;;;;5036132;28;20025;-41
2022/03/10 06:33:58;;;;;;;22.98;9.57;;;4.60;99.90;;;;;;5028168;28;20105;-39
2022/03/10 06:36:24;;;;;;;31.08;10.43;;;4.70;99.90;;;;;;5016004;28;20501;-41
2022/03/10 06:38:50;;;;;;;31.90;11.13;;;4.90;99.90;;;;;;5016033;28;20041;-40
2022/03/10 06:41:16;;;;;;;28.85;10.02;;;5.00;99.90;;;;;;5015901;28;20483;-40
2022/03/10 06:43:41;;;;;;;22.50;10.45;;;5.00;99.90;;;;;;5016059;28;20103;-41
2022/03/10 06:46:07;;;;;;;24.50;10.20;;;5.00;99.90;;;;;;5023572;28;20100;-41
2022/03/10 06:48:32;;;;;;;21.73;9.75;;;5.10;99.90;;;;;;5035723;28;20044;-39
2022/03/10 06:50:58;;;;;;;32.28;11.10;;;5.20;99.80;;;;;;5034451;28;20034;-42
2022/03/10 06:53:24;;;;;;;26.77;10.10;;;5.30;99.60;;;;;;5035323;28;20031;-40
2022/03/10 06:55:49;;;;;;;29.83;11.10;;;5.30;99.50;;;;;;5035412;28;20430;-42
2022/03/10 06:58:15;;;;;;;22.13;9.65;;;5.40;99.30;;;;;;5035280;28;20032;-40
2022/03/10 07:00:41;;;;;;;22.05;9.93;;;5.50;99.20;;;;;;5035369;28;20022;-41
2022/03/10 07:03:06;;;;;;;24.73;9.98;;;5.60;99.10;;;;;;5034567;28;20049;-40
2022/03/10 07:05:32;;;;;;;22.10;10.40;;;5.70;99.10;;;;;;5035296;28;20112;-42
2022/03/10 07:07:58;;;;;;;27.23;10.20;;;5.80;98.80;;;;;;5035236;28;20025;-41
2022/03/10 07:10:25;;;;;;;27.55;11.23;;;5.80;99.00;;;;;;5034958;28;20425;-43
2022/03/10 07:12:50;;;;;;;23.67;9.73;;;5.80;98.80;;;;;;5034167;28;20049;-41
2022/03/10 07:15:16;;;;;;;30.10;10.30;;;5.90;98.80;;;;;;5034193;28;20044;-39
2022/03/10 07:17:42;;;;;;;29.30;10.57;;;6.00;98.70;;;;;;5035049;28;20018;-40
2022/03/10 07:20:09;;;;;;;24.25;9.98;;;6.00;98.50;;;;;;5033660;28;20029;-40
2022/03/10 07:22:35;;;;;;;31.50;10.95;;;6.10;98.20;;;;;;5034971;28;20103;-41
2022/03/10 07:25:01;;;;;;;22.35;9.75;;;6.10;98.40;;;;;;5027623;28;20036;-41
2022/03/10 07:27:27;;;;;;;22.80;10.00;;;6.20;98.50;;;;;;5015370;28;20014;-39
2022/03/10 07:29:52;;;;;;;26.67;11.20;;;6.30;98.00;;;;;;5020333;28;20566;-40
2022/03/10 07:32:18;;;;;;;33.22;12.32;;;6.40;98.10;;;;;;5034774;28;20040;-39
2022/03/10 07:34:47;;;;;;;22.23;9.85;;;6.40;97.90;;;;;;5035079;28;20433;-41
2022/03/10 07:37:14;;;;;;;21.73;9.43;;;6.60;97.80;;;;;;5034579;28;20021;-40
2022/03/10 07:39:40;;;;;;;24.00;11.20;;;6.60;97.90;;;;;;5026670;28;20029;-40
2022/03/10 07:42:06;;;;;;;32.35;10.77;;;6.70;97.80;;;;;;5018045;28;20026;-43
2022/03/10 07:44:32;;;;;;;24.77;11.18;;;6.70;97.70;;;;;;5014674;28;20024;-41
2022/03/10 07:46:57;;;;;;;26.02;10.85;;;6.80;97.70;;;;;;5014817;28;20022;-39
2022/03/10 07:49:23;;;;;;;28.67;11.52;;;6.90;97.50;;;;;;5014647;28;20029;-38
2022/03/10 07:51:48;;;;;;;23.33;10.48;;;6.90;97.30;;;;;;5014559;28;20548;-37
2022/03/10 07:54:14;;;;;;;28.77;10.65;;;6.90;97.50;;;;;;5014589;28;20026;-38
2022/03/10 07:56:40;;;;;;;31.10;10.52;;;7.00;96.90;;;;;;5019166;28;20026;-47
2022/03/10 07:59:05;;;;;;;27.35;10.50;;;7.00;96.80;;;;;;5017655;28;20058;-40
2022/03/10 08:01:31;;;;;;;26.10;10.25;;;7.10;97.10;;;;;;5026016;28;20432;-41
2022/03/10 08:03:57;;;;;;;23.98;10.82;;;7.10;97.10;;;;;;5034332;28;20521;-40
2022/03/10 08:06:24;;;;;;;30.83;10.57;;;7.20;96.80;;;;;;5034111;28;20033;-38
2022/03/10 08:08:50;;;;;;;21.80;11.03;;;7.30;96.80;;;;;;5034147;28;20363;-39
2022/03/10 08:11:15;;;;;;;28.02;10.30;;;7.40;96.70;;;;;;5033916;28;20030;-39
2022/03/10 08:13:41;;;;;;;27.35;11.07;;;7.50;96.70;;;;;;5021700;28;20117;-41
2022/03/10 08:16:07;;;;;;;24.77;10.38;;;7.60;96.50;;;;;;5018127;28;20037;-40
2022/03/10 08:18:32;;;;;;;28.15;10.95;;;7.60;96.70;;;;;;5022462;28;20040;-41
2022/03/10 08:20:59;;;;;;;23.00;10.23;;;7.70;96.60;;;;;;5033878;28;20079;-41
2022/03/10 08:23:25;;;;;;;27.05;10.70;;;7.80;96.60;;;;;;5026320;28;20389;-41
2022/03/10 08:25:50;;;;;;;23.45;9.30;;;7.90;96.40;;;;;;5032854;28;20024;-42
2022/03/10 08:28:16;;;;;;;26.13;11.02;;;7.90;96.80;;;;;;5030093;28;20033;-42
2022/03/10 08:30:42;;;;;;;25.58;11.23;;;7.80;96.90;;;;;;5033800;28;20025;-40
2022/03/10 08:33:08;;;;;;;29.05;11.18;;;7.90;96.70;;;;;;5031902;28;20022;-40
2022/03/10 08:35:34;;;;;;;28.60;11.35;;;7.90;96.60;;;;;;5024908;28;20029;-40
2022/03/10 08:38:00;;;;;;;28.65;11.82;;;8.10;96.60;;;;;;5033832;28;20037;-40
2022/03/10 08:40:25;;;;;;;37.67;11.10;;;8.20;96.50;;;;;;5031621;28;20018;-40
2022/03/10 08:42:52;;;;;;;27.48;12.20;;;8.30;96.80;;;;;;5014470;28;20022;-46
2022/03/10 08:45:19;;;;;;;31.33;12.05;;;8.30;97.00;;;;;;5019530;28;20026;-44
2022/03/10 08:47:45;;;;;;;25.95;11.18;;;8.40;96.70;;;;;;5028902;28;20544;-40
2022/03/10 08:50:11;;;;;;;22.45;10.95;;;8.40;96.70;;;;;;5033225;28;20017;-39
2022/03/10 08:52:38;;;;;;;20.75;9.73;;;8.50;97.10;;;;;;5032766;28;20592;-39
2022/03/10 08:55:05;;;;;;;25.13;11.43;;;8.60;97.70;;;;;;5032944;28;20029;-40
2022/03/10 08:57:31;;;;;;;27.17;10.18;;;8.80;97.10;;;;;;5033106;28;20072;-38
2022/03/10 08:59:57;;;;;;;28.35;12.13;;;8.90;97.30;;;;;;5032464;28;20379;-39
2022/03/10 09:02:23;;;;;;;25.08;11.43;;;9.00;96.80;;;;;;5018569;28;20034;-40
2022/03/10 09:04:48;;;;;;;24.08;11.18;;;9.00;96.90;;;;;;5033253;28;20052;-37
2022/03/10 09:07:14;;;;;;;27.23;10.95;;;9.20;96.50;;;;;;5033087;28;20053;-41
2022/03/10 09:09:40;;;;;;;30.38;11.52;;;9.30;96.40;;;;;;5015245;28;20026;-39
2022/03/10 09:12:06;;;;;;;31.27;12.07;;;9.40;96.30;;;;;;5029760;28;20097;-42
2022/03/10 09:14:31;;;;;;;33.03;12.68;;;9.50;96.60;;;;;;5032483;28;20041;-39
2022/03/10 09:16:57;;;;;;;27.13;11.98;;;9.50;96.40;;;;;;5032953;28;20087;-40
2022/03/10 09:19:23;;;;;;;25.40;11.20;;;9.60;96.50;;;;;;5032399;28;20017;-39
2022/03/10 09:21:48;;;;;;;24.85;11.50;;;9.70;96.80;;;;;;5030770;28;20059;-40
2022/03/10 09:24:15;;;;;;;25.75;10.90;;;9.80;96.20;;;;;;5033032;28;20390;-37
2022/03/10 09:26:41;;;;;;;25.55;11.02;;;10.00;95.90;;;;;;5028460;28;20171;-37
2022/03/10 09:29:07;;;;;;;35.88;12.43;;;10.10;95.90;;;;;;5013005;28;20129;-39
2022/03/10 09:31:32;;;;;;;27.50;11.38;;;10.10;96.30;;;;;;5016244;28;20422;-39
2022/03/10 09:33:58;;;;;;;25.02;11.20;;;10.20;96.20;;;;;;5017535;28;20025;-37
2022/03/10 09:36:26;;;;;;;25.25;11.82;;;10.20;96.30;;;;;;5026969;28;20029;-39
2022/03/10 09:38:55;;;;;;;25.70;11.38;;;10.40;96.40;;;;;;5028800;28;20382;-41
2022/03/10 09:41:20;;;;;;;28.50;11.98;;;10.50;96.30;;;;;;5031847;28;20474;-40
2022/03/10 09:43:48;;;;;;;31.95;12.90;;;10.60;96.40;;;;;;5018386;28;20032;-41
2022/03/10 09:46:14;;;;;;;24.77;12.30;;;10.70;96.20;;;;;;5017085;28;20398;-45
2022/03/10 09:48:40;;;;;;;27.20;12.23;;;10.90;96.10;;;;;;5021672;28;20034;-38
2022/03/10 09:51:07;;;;;;;26.00;11.77;;;11.00;95.40;;;;;;5017568;28;20545;-37
2022/03/10 09:53:34;;;;;;;28.52;12.73;;;11.10;95.50;;;;;;5026281;28;20033;-40
2022/03/10 09:56:02;;;;;;;26.23;12.65;;;11.10;95.30;;;;;;5019506;28;20022;-40
2022/03/10 09:58:28;;;;;;;24.58;11.73;;;11.10;95.50;;;;;;5032358;28;20025;-42
2022/03/10 10:01:08;;;;;;;30.55;12.30;;;11.10;95.70;;;;;;5032359;28;20041;-41
2022/03/10 10:03:34;;;;;;;23.67;11.50;;;11.20;96.10;;;;;;5012594;28;20034;-41
2022/03/10 10:06:01;;;;;;;31.70;12.68;;;11.30;96.20;;;;;;5012863;28;20041;-40
2022/03/10 10:08:30;;;;;;;33.70;13.47;;;11.50;95.40;;;;;;5012626;28;20107;-40
2022/03/10 10:10:59;;;;;;;25.27;12.05;;;11.70;95.30;;;;;;5012842;28;20284;-39
2022/03/10 10:13:39;;;;;;;30.45;12.20;;;11.90;95.30;;;;;;5022775;28;20112;-40
2022/03/10 10:16:08;;;;;;;29.60;12.52;;;11.90;95.20;;;;;;5031072;28;20529;-42
2022/03/10 10:18:35;;;;;;;28.38;11.82;;;12.00;94.80;;;;;;5032229;28;20025;-41
2022/03/10 10:21:02;;;;;;;34.03;13.90;;;12.00;94.80;;;;;;5032219;28;20037;-54
2022/03/10 10:23:33;;;;;;;28.03;12.53;;;11.90;95.10;;;;;;5032360;28;20067;-40
2022/03/10 10:26:06;;;;;;;36.78;12.93;;;12.00;95.20;;;;;;5032272;28;20040;-39
2022/03/10 10:28:50;;;;;;;31.30;12.23;;;12.20;95.10;;;;;;5032457;28;20025;-37
2022/03/10 10:31:18;;;;;;;26.55;11.73;;;12.30;95.30;;;;;;5031250;28;20033;-46
2022/03/10 10:34:10;;;;;;;30.05;13.35;;;12.40;95.30;;;;;;5032157;28;20031;-40
2022/03/10 10:36:37;;;;;;;27.45;11.98;;;12.60;94.80;;;;;;5024324;28;20024;-39
2022/03/10 10:39:09;;;;;;;23.98;12.13;;;12.70;94.90;;;;;;5025199;28;20104;-54
2022/03/10 10:41:36;;;;;;;31.35;14.27;;;12.80;94.80;;;;;;5020160;28;20124;-38
2022/03/10 10:44:08;;;;;;;27.07;13.33;;;12.90;94.70;;;;;;5023454;28;20059;-41
2022/03/10 10:46:37;;;;;;;27.38;13.27;;;13.10;95.00;;;;;;5024685;28;20283;-38
2022/03/10 10:49:15;;;;;;;33.60;12.85;;;13.20;94.30;;;;;;5033876;28;20026;-40
2022/03/10 10:51:41;;;;;;;;;;;13.30;94.60;;;;;;5021146;28;20429;-40
2022/03/10 10:54:09;;;;;;;31.85;12.65;;;13.40;94.20;;;;;;5022817;28;19948;-37
2022/03/10 10:56:44;;;;;;;29.38;12.23;;;13.50;94.30;;;;;;5019325;28;20021;-40
2022/03/10 10:59:24;;;;;;;34.88;12.95;;;13.50;94.70;;;;;;5028968;28;20026;-42
2022/03/10 11:01:50;;;;;;;32.50;12.98;;;13.70;94.70;;;;;;5019604;28;20033;-43
2022/03/10 11:04:15;;;;;;;30.75;13.48;;;13.70;94.00;;;;;;5018722;28;20041;-39
2022/03/10 11:06:41;;;;;;;28.08;13.25;;;13.80;94.20;;;;;;5017502;28;20129;-37
2022/03/10 11:09:07;;;;;;;31.00;12.65;;;13.80;94.20;;;;;;5015225;28;20049;-40
2022/03/10 11:11:34;;;;;;;28.40;13.85;;;13.90;94.50;;;;;;5015254;28;20077;-38
2022/03/10 11:13:59;;;;;;;28.20;12.68;;;14.00;94.00;;;;;;5014978;28;20053;-41
2022/03/10 11:16:25;;;;;;;29.52;11.95;;;14.10;94.60;;;;;;5013614;28;20164;-40
2022/03/10 11:18:52;;;;;;;28.88;11.48;;;14.10;94.20;;;;;;5015201;28;20033;-40
2022/03/10 11:21:41;;;;;;;28.02;12.98;;;14.10;94.60;;;;;;5015623;28;20044;-40
2022/03/10 11:24:10;;;;;;;32.38;13.95;;;14.20;94.60;;;;;;5015099;28;20042;-42
2022/03/10 11:26:53;;;;;;;27.67;13.32;;;14.40;94.10;;;;;;5015203;28;20042;-39
2022/03/10 11:29:24;;;;;;;30.48;13.05;;;14.50;94.30;;;;;;5014957;28;20092;-42
2022/03/10 11:31:53;;;;;;;28.25;12.10;;;14.70;94.10;;;;;;5014817;28;20034;-39
2022/03/10 11:34:46;;;;;;;23.92;11.95;;;14.80;93.90;;;;;;5014979;28;20056;-42
2022/03/10 11:37:13;;;;;;;27.42;11.60;;;14.90;94.00;;;;;;5014929;28;20068;-38
2022/03/10 11:39:55;;;;;;;25.42;11.48;;;15.10;93.60;;;;;;5013546;28;20053;-42
2022/03/10 11:42:29;;;;;;;26.70;12.82;;;15.20;92.90;;;;;;5014772;28;20044;-41
2022/03/10 11:45:15;;;;;;;29.75;13.27;;;15.20;93.50;;;;;;5014700;28;20033;-40
2022/03/10 11:47:40;;;;;;;26.60;11.82;;;15.40;92.60;;;;;;5014713;28;20034;-41
2022/03/10 11:50:24;;;;;;;22.95;11.55;;;15.50;92.60;;;;;;5014497;28;20029;-41
2022/03/10 11:53:04;;;;;;;29.52;11.73;;;15.60;92.80;;;;;;5024957;28;20401;-40
2022/03/10 11:55:43;;;;;;;26.40;12.10;;;15.70;92.60;;;;;;5032348;28;20112;-40
2022/03/10 11:58:11;;;;;;;25.38;10.93;;;15.70;92.10;;;;;;5034460;28;20030;-42
2022/03/10 12:00:47;;;;;;;24.33;11.05;;;15.70;92.40;;;;;;5032470;28;20041;-42
2022/03/10 12:03:24;;;;;;;23.92;12.52;;;15.80;92.60;;;;;;5032845;28;20397;-41
2022/03/10 12:05:55;;;;;;;34.72;11.75;;;15.90;92.50;;;;;;5034075;28;20087;-39
2022/03/10 12:08:22;;;;;;;24.20;10.98;;;16.00;91.90;;;;;;5034105;28;20481;-40
2022/03/10 12:10:48;;;;;;;28.27;11.50;;;16.10;91.70;;;;;;5032883;28;20029;-40
2022/03/10 12:13:44;;;;;;;25.17;11.00;;;16.20;91.10;;;;;;5031290;28;20552;-40
2022/03/10 12:16:30;;;;;;;24.35;11.00;;;16.20;91.40;;;;;;5034148;28;20485;-40
2022/03/10 12:18:59;;;;;;;29.63;11.30;;;16.30;90.80;;;;;;5026866;28;20045;-42
2022/03/10 12:21:25;;;;;;;28.13;11.65;;;16.20;90.70;;;;;;5026741;28;20014;-43
2022/03/10 12:24:01;;;;;;;24.70;11.98;;;16.20;91.00;;;;;;5013830;28;20474;-39
2022/03/10 12:26:45;;;;;;;27.50;11.73;;;16.20;90.90;;;;;;5014189;28;20061;-39
2022/03/10 12:29:13;;;;;;;24.13;10.63;;;16.00;91.00;;;;;;5034247;28;20033;-41
2022/03/10 12:31:41;;;;;;;24.70;12.70;;;16.10;91.30;;;;;;5027443;28;20083;-43
2022/03/10 12:34:12;;;;;;;24.77;10.80;;;16.40;90.60;;;;;;5028797;28;20112;-39
2022/03/10 12:36:49;;;;;;;24.95;11.93;;;16.50;91.20;;;;;;5030875;28;20068;-40
2022/03/10 12:39:16;;;;;;;23.92;11.50;;;16.70;90.40;;;;;;5032097;28;20080;-38
2022/03/10 12:41:43;;;;;;;;;;;16.70;90.00;;;;;;5033013;28;20104;-40